Time;durP1;ratioP1;P1;durP2;ratioP2;P2;SDS_P1;SDS_P2;PMS_P1;PMS_P2;Temp;Humidity;BMP_temperature;BMP_pressure;BME280_temperature;BME280_humidity;BME280_pressure;Samples;Min_cycle;Max_cycle;Signal;HPM_P1;HPM_P2
2023/12/12 00:00:50;;;;;;;;;29.25;19.75;;;;;13.27;78.18;100330.41;4961433;28;58669;-71
2023/12/12 00:03:15;;;;;;;;;25.25;22.25;;;;;13.26;77.80;100330.47;4950714;28;63431;-71
2023/12/12 00:05:40;;;;;;;;;28.75;22.25;;;;;13.29;77.85;100323.31;4944817;28;67355;-72
2023/12/12 00:08:06;;;;;;;;;27.50;18.75;;;;;13.32;77.90;100316.25;4938723;28;74020;-72
2023/12/12 00:10:31;;;;;;;;;25.50;19.25;;;;;13.28;77.81;100319.00;4940068;28;72903;-72
2023/12/12 00:12:56;;;;;;;;;21.50;18.75;;;;;13.29;77.78;100322.47;4939497;28;45279;-72
2023/12/12 00:15:22;;;;;;;;;22.50;20.25;;;;;13.29;77.91;100328.56;4941088;28;45402;-71
2023/12/12 00:17:47;;;;;;;;;27.75;21.50;;;;;13.33;78.21;100329.31;4942172;28;75678;-70
2023/12/12 00:20:12;;;;;;;;;22.00;19.25;;;;;13.34;78.11;100340.69;4938871;28;60162;-71
2023/12/12 00:22:38;;;;;;;;;21.50;19.25;;;;;13.35;78.31;100329.25;4943860;28;56244;-72
2023/12/12 00:25:03;;;;;;;;;23.00;18.75;;;;;13.34;78.33;100324.94;4938770;28;45433;-72
2023/12/12 00:27:29;;;;;;;;;26.25;23.50;;;;;13.35;78.15;100308.22;4939911;28;46162;-72
2023/12/12 00:29:55;;;;;;;;;22.75;17.25;;;;;13.35;78.15;100311.72;4932185;28;45294;-72
2023/12/12 00:32:20;;;;;;;;;25.50;21.00;;;;;13.33;78.16;100315.31;4924888;28;45451;-72
2023/12/12 00:34:45;;;;;;;;;24.25;21.00;;;;;13.32;78.93;100311.00;4942032;28;45300;-72
2023/12/12 00:37:11;;;;;;;;;20.25;17.50;;;;;13.30;78.75;100303.16;4937403;28;45494;-72
2023/12/12 00:39:40;;;;;;;;;25.75;20.50;;;;;13.32;79.18;100306.59;4938340;28;45449;-72
2023/12/12 00:42:05;;;;;;;;;23.75;18.75;;;;;13.32;79.10;100300.50;4934392;28;69447;-72
2023/12/12 00:44:31;;;;;;;;;27.25;19.00;;;;;13.36;79.40;100296.78;4938830;28;46136;-72
2023/12/12 00:46:56;;;;;;;;;23.50;19.25;;;;;13.34;79.33;100294.22;4938485;28;45493;-72
2023/12/12 00:49:21;;;;;;;;;26.50;20.00;;;;;13.36;79.10;100288.91;4943012;28;67503;-72
2023/12/12 00:51:47;;;;;;;;;23.00;16.25;;;;;13.37;79.28;100286.22;4943816;28;45512;-72
2023/12/12 00:54:12;;;;;;;;;20.00;16.75;;;;;13.36;79.41;100286.28;4941875;28;71080;-72
2023/12/12 00:56:37;;;;;;;;;20.50;16.00;;;;;13.37;79.34;100280.97;4938412;28;53268;-72
2023/12/12 00:59:03;;;;;;;;;19.50;17.25;;;;;13.37;79.39;100275.69;4939554;28;73149;-74
2023/12/12 01:01:28;;;;;;;;;80.00;64.00;;;;;13.37;79.64;100269.56;4940264;28;57528;-73
2023/12/12 01:03:53;;;;;;;;;76.25;60.00;;;;;13.39;79.73;100273.84;4938598;28;55995;-72
2023/12/12 01:06:25;;;;;;;;;26.75;17.75;;;;;13.39;79.63;100271.22;4938010;28;62146;-73
2023/12/12 01:08:51;;;;;;;;;29.50;18.50;;;;;13.39;79.74;100262.50;4939807;28;45528;-73
2023/12/12 01:11:17;;;;;;;;;21.25;18.50;;;;;13.40;79.84;100272.94;4939915;28;45335;-73
2023/12/12 01:13:43;;;;;;;;;23.75;16.75;;;;;13.40;79.87;100261.56;4940950;28;45541;-73
2023/12/12 01:16:08;;;;;;;;;23.75;17.75;;;;;13.43;80.18;100264.06;4946988;28;46206;-71
2023/12/12 01:18:34;;;;;;;;;18.75;17.25;;;;;13.42;79.83;100260.56;4946201;28;45211;-72
2023/12/12 01:21:00;;;;;;;;;25.25;17.50;;;;;13.43;79.75;100248.28;4953732;28;45362;-72
2023/12/12 01:23:25;;;;;;;;;19.75;17.75;;;;;13.45;80.15;100243.81;4941968;28;45316;-71
2023/12/12 01:25:51;;;;;;;;;22.00;19.00;;;;;13.45;79.83;100241.16;4956444;28;74327;-71
2023/12/12 01:28:16;;;;;;;;;25.25;19.75;;;;;13.44;79.99;100242.13;4941419;28;64846;-70
2023/12/12 01:30:43;;;;;;;;;21.50;17.00;;;;;13.46;80.00;100240.25;4941191;28;45691;-72
2023/12/12 01:33:08;;;;;;;;;22.50;21.00;;;;;13.47;79.90;100239.31;4940920;28;45369;-73
2023/12/12 01:35:33;;;;;;;;;20.25;18.00;;;;;13.48;79.99;100238.41;4944122;28;46229;-73
2023/12/12 01:37:59;;;;;;;;;20.25;17.00;;;;;13.51;80.11;100237.41;4952675;28;72270;-73
2023/12/12 01:40:24;;;;;;;;;25.25;22.50;;;;;13.52;80.03;100228.59;4936844;28;67951;-72
2023/12/12 01:42:49;;;;;;;;;29.75;20.75;;;;;13.50;80.21;100241.81;4939424;28;72108;-72
2023/12/12 01:45:14;;;;;;;;;18.50;15.50;;;;;13.52;80.50;100237.31;4943611;28;75139;-72
2023/12/12 01:47:40;;;;;;;;;26.50;19.25;;;;;13.53;80.13;100239.03;4940708;28;56033;-72
2023/12/12 01:50:06;;;;;;;;;22.25;19.25;;;;;13.54;80.44;100235.47;4940040;28;66172;-73
2023/12/12 01:52:32;;;;;;;;;23.25;19.50;;;;;13.53;80.33;100236.41;4960695;28;45433;-71
2023/12/12 01:54:58;;;;;;;;;23.75;18.25;;;;;13.53;80.80;100230.28;4958405;28;46160;-72
2023/12/12 01:57:24;;;;;;;;;20.00;14.25;;;;;13.54;80.50;100235.47;4939222;28;46685;-72
2023/12/12 01:59:49;;;;;;;;;22.50;19.75;;;;;13.54;80.63;100246.00;4936327;28;45284;-72
2023/12/12 02:02:16;;;;;;;;;112.75;97.25;;;;;13.52;80.82;100239.94;4939962;28;71886;-72
2023/12/12 02:04:43;;;;;;;;;33.50;25.00;;;;;13.51;80.61;100234.75;4957933;28;46183;-72
2023/12/12 02:07:09;;;;;;;;;23.50;19.50;;;;;13.46;80.94;100222.69;4941076;28;46041;-72
2023/12/12 02:09:35;;;;;;;;;20.00;17.00;;;;;13.48;81.05;100220.84;4933904;28;68085;-72
2023/12/12 02:12:00;;;;;;;;;17.25;17.00;;;;;13.51;80.85;100216.38;4942477;28;63200;-72
2023/12/12 02:14:26;;;;;;;;;23.75;18.25;;;;;13.52;81.00;100215.44;4941220;28;63070;-73
2023/12/12 02:16:51;;;;;;;;;17.50;15.25;;;;;13.52;80.76;100211.03;4941272;28;45413;-71
2023/12/12 02:19:17;;;;;;;;;18.50;15.75;;;;;13.48;81.05;100206.88;4945219;28;68206;-70
2023/12/12 02:21:42;;;;;;;;;17.50;14.75;;;;;13.50;80.86;100210.25;4941026;28;45318;-71
2023/12/12 02:24:08;;;;;;;;;18.50;13.75;;;;;13.50;80.92;100198.91;4940956;28;74985;-71
2023/12/12 02:26:33;;;;;;;;;14.25;12.50;;;;;13.53;81.12;100199.59;4943281;28;45241;-72
2023/12/12 02:28:59;;;;;;;;;20.75;15.50;;;;;13.51;80.79;100196.22;4943741;28;45555;-72
2023/12/12 02:31:24;;;;;;;;;20.00;15.75;;;;;13.52;81.17;100192.63;4960948;28;74138;-73
2023/12/12 02:33:49;;;;;;;;;14.50;13.00;;;;;13.53;81.00;100190.84;4940179;28;66079;-72
2023/12/12 02:36:15;;;;;;;;;14.25;12.00;;;;;13.52;80.97;100190.00;4940025;28;72161;-72
2023/12/12 02:38:41;;;;;;;;;18.75;13.75;;;;;13.53;80.79;100190.84;4941160;28;45570;-72
2023/12/12 02:41:06;;;;;;;;;14.25;13.00;;;;;13.53;81.13;100183.84;4941634;28;54568;-73
2023/12/12 02:43:31;;;;;;;;;18.00;17.00;;;;;13.53;81.24;100175.06;4959037;28;75740;-71
2023/12/12 02:45:56;;;;;;;;;16.25;12.50;;;;;13.54;80.97;100172.38;4939586;28;45446;-72
2023/12/12 02:48:22;;;;;;;;;14.75;13.25;;;;;13.54;80.89;100167.13;4939886;28;69331;-72
2023/12/12 02:50:47;;;;;;;;;17.75;12.25;;;;;13.55;81.01;100157.47;4942958;28;45341;-72
2023/12/12 02:53:12;;;;;;;;;18.75;13.00;;;;;13.54;81.29;100146.09;4941210;28;75501;-73
2023/12/12 02:55:38;;;;;;;;;15.75;13.75;;;;;13.55;81.14;100137.28;4941962;28;54319;-72
2023/12/12 02:58:03;;;;;;;;;17.50;13.75;;;;;13.53;81.33;100133.88;4941017;28;55423;-72
2023/12/12 03:00:28;;;;;;;;;16.00;14.00;;;;;13.51;81.38;100125.22;4941748;28;71955;-72
2023/12/12 03:02:54;;;;;;;;;17.00;13.75;;;;;13.52;81.33;100123.44;4947721;28;73879;-72
2023/12/12 03:05:19;;;;;;;;;17.25;14.00;;;;;13.52;81.25;100118.19;4940834;28;72143;-72
2023/12/12 03:07:44;;;;;;;;;14.50;12.00;;;;;13.44;80.82;100103.66;4946444;28;45536;-72
2023/12/12 03:10:10;;;;;;;;;14.75;12.25;;;;;13.40;81.02;100103.84;4939230;28;60668;-72
2023/12/12 03:12:35;;;;;;;;;12.00;11.00;;;;;13.29;81.19;100094.69;4939514;28;62728;-72
2023/12/12 03:15:00;;;;;;;;;13.75;9.00;;;;;13.28;81.06;100115.81;4939738;28;52554;-71
2023/12/12 03:17:27;;;;;;;;;13.25;10.75;;;;;13.24;81.57;100115.09;4939294;28;66243;-72
2023/12/12 03:19:52;;;;;;;;;14.50;12.50;;;;;13.24;82.11;100116.84;4936958;28;45504;-71
2023/12/12 03:22:17;;;;;;;;;13.25;9.25;;;;;13.27;81.89;100112.31;4936999;28;60423;-72
2023/12/12 03:24:43;;;;;;;;;16.75;10.50;;;;;13.28;81.48;100103.50;4938493;28;72829;-72
2023/12/12 03:27:08;;;;;;;;;10.25;10.25;;;;;13.29;81.76;100097.31;4943647;28;67528;-72
2023/12/12 03:29:34;;;;;;;;;12.50;10.25;;;;;13.30;81.81;100091.13;4943550;28;53362;-72
2023/12/12 03:31:59;;;;;;;;;12.75;11.50;;;;;13.30;81.84;100085.03;4944384;28;46716;-71
2023/12/12 03:34:24;;;;;;;;;13.50;13.50;;;;;13.34;81.94;100081.38;4956126;28;50438;-71
2023/12/12 03:36:50;;;;;;;;;12.25;10.50;;;;;13.34;81.90;100073.47;4943072;28;69461;-71
2023/12/12 03:39:15;;;;;;;;;13.50;11.25;;;;;13.34;81.67;100070.84;4942865;28;72824;-72
2023/12/12 03:41:42;;;;;;;;;14.50;11.00;;;;;13.33;82.21;100073.56;4941717;28;47808;-72
2023/12/12 03:44:08;;;;;;;;;11.50;10.00;;;;;13.29;81.72;100057.91;4943010;28;45365;-72
2023/12/12 03:46:33;;;;;;;;;10.00;10.00;;;;;13.31;81.63;100060.47;4946244;28;45472;-72
2023/12/12 03:48:58;;;;;;;;;12.00;9.50;;;;;13.32;81.55;100051.69;4940710;28;57656;-72
2023/12/12 03:51:24;;;;;;;;;13.00;9.75;;;;;13.36;81.58;100050.59;4946040;28;66382;-72
2023/12/12 03:53:50;;;;;;;;;12.75;11.00;;;;;13.35;81.71;100048.91;4940049;28;45447;-72
2023/12/12 03:56:15;;;;;;;;;10.75;9.75;;;;;13.36;81.47;100044.50;4955123;28;45689;-71
2023/12/12 03:58:40;;;;;;;;;10.25;8.50;;;;;13.35;81.47;100032.28;4942552;28;66901;-71
2023/12/12 04:01:06;;;;;;;;;10.00;9.00;;;;;13.35;81.61;100030.53;4962489;28;73023;-71
2023/12/12 04:03:32;;;;;;;;;8.75;7.50;;;;;13.37;81.42;100020.78;4944314;28;45495;-71
2023/12/12 04:05:57;;;;;;;;;12.25;9.50;;;;;13.38;81.53;100032.13;4950347;28;45393;-71
2023/12/12 04:08:22;;;;;;;;;9.25;7.75;;;;;13.37;81.73;100019.91;4945137;28;53876;-71
2023/12/12 04:10:48;;;;;;;;;10.00;7.75;;;;;13.39;81.29;100012.81;4937261;28;75485;-71
2023/12/12 04:13:13;;;;;;;;;8.50;8.00;;;;;13.40;81.29;100019.75;4944041;28;71333;-71
2023/12/12 04:15:38;;;;;;;;;11.00;8.00;;;;;13.42;81.33;100024.03;4949612;28;68275;-71
2023/12/12 04:18:04;;;;;;;;;8.00;7.00;;;;;13.43;81.28;100027.50;4948588;28;45602;-71
2023/12/12 04:20:29;;;;;;;;;8.75;7.75;;;;;13.40;81.77;100025.00;4947432;28;75689;-71
2023/12/12 04:22:54;;;;;;;;;6.50;6.00;;;;;13.44;81.40;100016.06;4940053;28;46991;-72
2023/12/12 04:25:20;;;;;;;;;12.50;8.75;;;;;13.48;81.38;100018.44;4955675;28;51662;-71
2023/12/12 04:27:46;;;;;;;;;9.50;7.75;;;;;13.48;81.54;100014.97;4937417;28;73269;-71
2023/12/12 04:30:11;;;;;;;;;13.00;7.50;;;;;13.53;81.22;100028.75;4944368;28;45468;-71
2023/12/12 04:32:37;;;;;;;;;11.00;8.00;;;;;13.54;81.47;100017.28;4940978;28;45655;-71
2023/12/12 04:35:05;;;;;;;;;10.75;9.50;;;;;13.55;81.63;100016.38;4949573;28;45713;-71
2023/12/12 04:37:30;;;;;;;;;8.25;8.00;;;;;13.55;81.36;100021.63;4936227;28;45413;-72
2023/12/12 04:39:55;;;;;;;;;11.25;9.00;;;;;13.58;81.55;100023.22;4959411;28;51970;-71
2023/12/12 04:42:23;;;;;;;;;11.25;9.25;;;;;13.58;81.16;100013.59;4945338;28;71988;-71
2023/12/12 04:44:48;;;;;;;;;8.00;8.00;;;;;13.59;81.40;100012.63;4946728;28;45473;-71
2023/12/12 04:47:13;;;;;;;;;9.25;7.25;;;;;13.60;81.08;100006.47;4927759;28;72844;-72
2023/12/12 04:49:38;;;;;;;;;8.75;7.00;;;;;13.60;81.21;100003.84;4942450;28;72366;-71
2023/12/12 04:52:04;;;;;;;;;9.00;8.50;;;;;13.63;81.38;100006.31;4955168;28;73161;-72
2023/12/12 04:54:29;;;;;;;;;8.25;8.25;;;;;13.62;81.25;99996.72;4940661;28;45207;-71
2023/12/12 04:56:55;;;;;;;;;10.25;7.75;;;;;13.65;81.41;99999.19;4937483;28;54961;-72
2023/12/12 04:59:20;;;;;;;;;5.00;5.00;;;;;13.66;81.41;99997.41;4940619;28;45646;-71
2023/12/12 05:01:45;;;;;;;;;10.00;8.00;;;;;13.65;81.57;99980.78;4960383;28;71627;-71
2023/12/12 05:04:11;;;;;;;;;10.00;7.25;;;;;13.66;81.78;99982.47;4938289;28;68421;-72
2023/12/12 05:06:36;;;;;;;;;7.50;6.00;;;;;13.68;81.94;99985.03;4935941;28;72153;-72
2023/12/12 05:09:01;;;;;;;;;8.00;6.75;;;;;13.68;81.52;99982.41;4938332;28;66890;-71
2023/12/12 05:11:27;;;;;;;;;10.00;8.00;;;;;13.63;82.07;99966.88;4944945;28;45348;-71
2023/12/12 05:13:52;;;;;;;;;11.00;9.00;;;;;13.67;82.13;99967.56;4938836;28;66111;-72
2023/12/12 05:16:18;;;;;;;;;12.00;9.00;;;;;13.66;81.97;99963.22;4939215;28;45423;-72
2023/12/12 05:18:44;;;;;;;;;14.50;11.00;;;;;13.67;81.80;99975.47;4940635;28;46051;-71
2023/12/12 05:21:11;;;;;;;;;12.50;9.25;;;;;13.68;81.57;99983.22;4939081;28;45393;-71
2023/12/12 05:23:36;;;;;;;;;10.75;8.75;;;;;13.68;81.56;99985.88;4938441;28;45484;-72
2023/12/12 05:26:01;;;;;;;;;12.00;10.25;;;;;13.68;82.07;99982.41;4938441;28;45234;-71
2023/12/12 05:28:27;;;;;;;;;14.00;10.50;;;;;13.66;81.92;99957.97;4940947;28;75904;-71
2023/12/12 05:30:52;;;;;;;;;10.75;10.50;;;;;13.69;81.86;99965.69;4943425;28;46248;-71
2023/12/12 05:33:18;;;;;;;;;10.25;9.00;;;;;13.71;82.28;99960.38;4943548;28;45329;-71
2023/12/12 05:35:44;;;;;;;;;8.50;8.00;;;;;13.68;81.86;99954.31;4926088;28;45682;-71
2023/12/12 05:38:09;;;;;;;;;12.00;9.50;;;;;13.66;82.42;99950.91;4944551;28;45189;-71
2023/12/12 05:40:35;;;;;;;;;13.75;11.00;;;;;13.71;82.26;99960.38;4942676;28;45153;-71
2023/12/12 05:43:00;;;;;;;;;12.50;7.00;;;;;13.74;82.14;99960.19;4940624;28;45345;-71
2023/12/12 05:45:26;;;;;;;;;14.75;10.50;;;;;13.72;82.07;99957.63;4945832;28;69032;-72
2023/12/12 05:47:51;;;;;;;;;11.75;9.50;;;;;13.73;82.22;99956.72;4943410;28;46060;-72
2023/12/12 05:50:18;;;;;;;;;12.00;11.00;;;;;13.72;82.35;99949.75;4946419;28;73353;-71
2023/12/12 05:52:43;;;;;;;;;11.00;9.50;;;;;13.68;82.20;99942.97;4944104;28;45413;-71
2023/12/12 05:55:09;;;;;;;;;12.75;9.00;;;;;13.70;82.48;99940.25;4941340;28;45570;-71
2023/12/12 05:57:35;;;;;;;;;11.25;10.00;;;;;13.72;82.75;99947.13;4944473;28;45600;-71
2023/12/12 06:00:01;;;;;;;;;13.75;11.00;;;;;13.73;82.57;99934.84;4942875;28;45543;-71
2023/12/12 06:02:26;;;;;;;;;12.00;8.00;;;;;13.73;82.96;99938.31;4931157;28;45261;-70
2023/12/12 06:04:52;;;;;;;;;10.25;10.25;;;;;13.72;83.28;99938.38;4942748;28;45220;-71
2023/12/12 06:07:18;;;;;;;;;14.25;10.50;;;;;13.75;82.46;99946.97;4941149;28;46177;-71
2023/12/12 06:09:44;;;;;;;;;13.00;9.75;;;;;13.74;82.65;99942.66;4944527;28;65835;-71
2023/12/12 06:12:09;;;;;;;;;14.25;12.00;;;;;13.74;82.67;99949.66;4945111;28;45472;-70
2023/12/12 06:14:35;;;;;;;;;12.25;11.00;;;;;13.75;82.65;99946.97;4941573;28;61891;-70
2023/12/12 06:17:00;;;;;;;;;11.75;11.50;;;;;13.74;82.90;99937.38;4959871;28;48716;-70
2023/12/12 06:19:26;;;;;;;;;15.00;10.00;;;;;13.78;82.57;99938.91;4944285;28;45395;-72
2023/12/12 06:21:53;;;;;;;;;12.50;9.25;;;;;13.80;82.74;99929.16;4957880;28;69241;-72
2023/12/12 06:24:18;;;;;;;;;13.25;10.00;;;;;13.78;82.58;99919.66;4940884;28;45596;-72
2023/12/12 06:26:44;;;;;;;;;11.25;10.50;;;;;13.78;82.49;99915.25;4960027;28;45988;-72
2023/12/12 06:29:09;;;;;;;;;12.00;9.25;;;;;13.76;82.82;99914.47;4940752;28;45442;-71
2023/12/12 06:31:35;;;;;;;;;11.50;10.00;;;;;13.76;82.97;99911.00;4959722;28;65408;-72
2023/12/12 06:34:01;;;;;;;;;9.50;7.25;;;;;13.78;82.79;99911.78;4939217;28;45523;-70
2023/12/12 06:36:26;;;;;;;;;9.75;8.00;;;;;13.79;83.01;99916.09;4941324;28;46278;-70
2023/12/12 06:38:51;;;;;;;;;8.25;6.00;;;;;13.77;82.59;99910.91;4939675;28;72975;-72
2023/12/12 06:41:17;;;;;;;;;10.25;7.75;;;;;13.81;82.72;99917.72;4940764;28;62246;-73
2023/12/12 06:43:45;;;;;;;;;6.25;5.00;;;;;13.83;82.63;99915.00;4948909;28;71466;-69
2023/12/12 06:46:10;;;;;;;;;7.00;6.00;;;;;13.83;82.49;99912.38;4941556;28;45421;-69
2023/12/12 06:48:37;;;;;;;;;8.75;8.25;;;;;13.83;82.71;99917.66;4942471;28;45595;-69
2023/12/12 06:51:03;;;;;;;;;11.50;6.75;;;;;13.84;82.25;99921.94;4952972;28;45653;-69
2023/12/12 06:53:29;;;;;;;;;7.00;6.00;;;;;13.83;82.55;99915.00;4940099;28;45724;-69
2023/12/12 06:55:54;;;;;;;;;12.00;7.75;;;;;13.84;82.65;99920.16;4940929;28;73717;-70
2023/12/12 06:58:22;;;;;;;;;6.50;6.50;;;;;13.83;82.55;99921.13;4942348;28;45495;-70
2023/12/12 07:00:47;;;;;;;;;7.00;6.00;;;;;13.84;82.55;99924.59;4941935;28;45476;-68
2023/12/12 07:03:12;;;;;;;;;9.00;8.00;;;;;13.84;82.40;99921.94;4943017;28;45226;-68
2023/12/12 07:05:38;;;;;;;;;9.50;5.50;;;;;13.83;82.36;99921.13;4943045;28;46353;-69
2023/12/12 07:08:04;;;;;;;;;12.50;9.75;;;;;13.84;82.23;99917.53;4958679;28;45339;-77
2023/12/12 07:10:30;;;;;;;;;7.50;7.00;;;;;13.86;82.21;99920.97;4949070;28;45412;-69
2023/12/12 07:12:56;;;;;;;;;10.50;8.00;;;;;13.87;82.48;99934.94;4939956;28;45625;-65
2023/12/12 07:15:23;;;;;;;;;8.75;7.50;;;;;13.88;82.66;99943.69;4947199;28;45558;-70
2023/12/12 07:17:48;;;;;;;;;13.00;7.50;;;;;13.88;82.74;99947.16;4935450;28;45408;-73
2023/12/12 07:20:14;;;;;;;;;8.50;7.00;;;;;13.86;82.64;99942.00;4941017;28;45442;-75
2023/12/12 07:22:39;;;;;;;;;10.25;8.00;;;;;13.86;82.18;99938.50;4938421;28;45463;-72
2023/12/12 07:25:05;;;;;;;;;10.50;8.00;;;;;13.88;82.81;99951.56;4941548;28;46649;-79
2023/12/12 07:27:31;;;;;;;;;8.75;8.00;;;;;13.88;82.69;99943.69;4941022;28;45955;-72
2023/12/12 07:29:57;;;;;;;;;10.00;7.50;;;;;13.89;82.63;99938.34;4942754;28;45649;-69
2023/12/12 07:32:23;;;;;;;;;11.00;6.00;;;;;13.89;82.35;99938.34;4953790;28;45394;-70
2023/12/12 07:34:49;;;;;;;;;11.50;11.00;;;;;13.88;82.39;99936.63;4953082;28;47974;-70
2023/12/12 07:37:14;;;;;;;;;10.25;8.50;;;;;13.89;82.55;99937.50;4940619;28;69383;-71
2023/12/12 07:39:39;;;;;;;;;14.00;8.00;;;;;13.84;82.37;99927.22;4938789;28;58296;-70
2023/12/12 07:42:05;;;;;;;;;10.25;6.75;;;;;13.86;82.56;99938.50;4943060;28;72065;-72
2023/12/12 07:44:30;;;;;;;;;15.25;9.50;;;;;13.86;82.34;99930.59;4953886;28;75149;-68
2023/12/12 07:46:55;;;;;;;;;11.75;9.75;;;;;13.91;82.24;99935.63;4935991;28;45491;-60
2023/12/12 07:49:21;;;;;;;;;11.25;8.75;;;;;13.91;82.57;99938.25;4939996;28;65909;-60
2023/12/12 07:51:46;;;;;;;;;10.00;8.25;;;;;13.92;82.13;99946.06;4944448;28;45256;-60
2023/12/12 07:54:12;;;;;;;;;12.00;6.50;;;;;13.95;82.28;99943.28;4942969;28;74439;-62
2023/12/12 07:56:37;;;;;;;;;7.50;6.00;;;;;13.95;81.98;99938.03;4943619;28;45452;-61
2023/12/12 07:59:03;;;;;;;;;8.50;5.50;;;;;13.96;82.02;99938.88;4940030;28;64547;-60
2023/12/12 08:01:29;;;;;;;;;8.00;5.75;;;;;13.99;82.18;99938.72;4939531;28;45496;-65
2023/12/12 08:03:54;;;;;;;;;5.00;4.00;;;;;13.99;81.86;99934.28;4939192;28;45957;-59
2023/12/12 08:06:20;;;;;;;;;6.50;5.50;;;;;13.99;81.63;99942.19;4939375;28;45435;-60
2023/12/12 08:08:45;;;;;;;;;8.00;6.25;;;;;14.02;81.46;99941.16;4939243;28;45405;-61
2023/12/12 08:11:14;;;;;;;;;7.00;5.50;;;;;14.05;81.52;99946.25;4939131;28;45314;-60
2023/12/12 08:13:39;;;;;;;;;5.00;5.00;;;;;14.06;81.52;99945.34;4942143;28;45573;-60
2023/12/12 08:16:05;;;;;;;;;5.00;5.00;;;;;14.08;81.47;99932.06;4921983;28;45584;-60
2023/12/12 08:18:31;;;;;;;;;4.00;4.00;;;;;14.09;81.27;99929.38;4940018;28;45482;-60
2023/12/12 08:20:56;;;;;;;;;3.00;3.00;;;;;14.12;81.21;99926.56;4942200;28;45212;-60
2023/12/12 08:23:21;;;;;;;;;4.75;4.00;;;;;14.15;81.03;99921.16;4940622;28;74819;-60
2023/12/12 08:25:47;;;;;;;;;6.00;4.25;;;;;14.17;81.15;99916.66;4941775;28;71357;-59
2023/12/12 08:28:13;;;;;;;;;7.00;4.25;;;;;14.19;81.02;99911.31;4939378;28;45473;-60
2023/12/12 08:30:38;;;;;;;;;5.50;5.00;;;;;14.21;80.64;99914.69;4944454;28;45420;-60
2023/12/12 08:33:04;;;;;;;;;5.50;5.50;;;;;14.23;80.87;99904.94;4945114;28;51262;-60
2023/12/12 08:35:29;;;;;;;;;4.00;4.00;;;;;14.24;80.65;99917.16;4945437;28;45444;-60
2023/12/12 08:37:54;;;;;;;;;4.50;3.00;;;;;14.21;80.39;99918.16;4942835;28;63455;-60
2023/12/12 08:40:20;;;;;;;;;5.50;3.75;;;;;14.19;80.22;99922.66;4938548;28;73258;-60
2023/12/12 08:42:45;;;;;;;;;4.00;3.25;;;;;14.15;80.24;99915.88;4938955;28;47008;-60
2023/12/12 08:45:11;;;;;;;;;3.00;3.00;;;;;14.12;80.52;99917.84;4939978;28;45541;-60
2023/12/12 08:47:39;;;;;;;;;4.00;3.50;;;;;14.10;80.20;99922.34;4937412;28;66839;-60
2023/12/12 08:50:05;;;;;;;;;3.75;3.75;;;;;14.12;80.43;99917.84;4941440;28;45829;-60
2023/12/12 08:52:33;;;;;;;;;4.00;4.00;;;;;14.17;80.43;99927.16;4946647;28;45427;-60
2023/12/12 08:54:58;;;;;;;;;6.50;3.25;;;;;14.23;80.56;99923.34;4941720;28;45731;-60
2023/12/12 08:57:24;;;;;;;;;6.75;4.75;;;;;14.30;80.26;99927.34;4939856;28;45508;-60
2023/12/12 08:59:49;;;;;;;;;4.75;3.00;;;;;14.34;80.19;99926.25;4951173;28;45426;-60
2023/12/12 09:02:16;;;;;;;;;5.00;3.00;;;;;14.37;79.57;99931.31;4950359;28;75426;-60
2023/12/12 09:04:41;;;;;;;;;1.25;1.25;;;;;14.42;79.79;99928.44;4936235;28;45365;-60
2023/12/12 09:07:06;;;;;;;;;2.00;2.00;;;;;14.40;79.56;99927.69;4943451;28;67918;-60
2023/12/12 09:09:32;;;;;;;;;3.00;3.00;;;;;14.37;79.17;99928.69;4938095;28;45563;-60
2023/12/12 09:12:00;;;;;;;;;4.50;1.50;;;;;14.34;79.28;99928.88;4963206;28;45876;-60
2023/12/12 09:14:25;;;;;;;;;2.75;2.75;;;;;14.34;79.53;99922.75;4940245;28;45501;-60
2023/12/12 09:16:52;;;;;;;;;3.25;2.75;;;;;14.35;79.21;99922.66;4948292;28;45424;-60
2023/12/12 09:19:17;;;;;;;;;2.00;2.00;;;;;14.37;79.13;99919.94;4942527;28;45551;-60
2023/12/12 09:21:43;;;;;;;;;2.00;2.00;;;;;14.41;79.11;99924.09;4942236;28;45503;-60
2023/12/12 09:24:08;;;;;;;;;3.25;1.75;;;;;14.43;78.89;99938.06;4943610;28;72944;-60
2023/12/12 09:26:33;;;;;;;;;2.00;2.00;;;;;14.46;78.75;99927.34;4940288;28;65735;-60
2023/12/12 09:28:59;;;;;;;;;2.00;2.00;;;;;14.53;78.50;99923.41;4959872;28;60113;-60
2023/12/12 09:31:28;;;;;;;;;2.00;2.00;;;;;14.57;78.39;99917.06;4954390;28;73196;-60
2023/12/12 09:33:54;;;;;;;;;2.25;2.25;;;;;14.66;78.31;99922.75;4934335;28;45196;-60
2023/12/12 09:36:19;;;;;;;;;3.50;1.00;;;;;14.69;78.15;99920.78;4937853;28;45558;-60
2023/12/12 09:38:45;;;;;;;;;1.75;1.50;;;;;14.74;77.86;99915.28;4956805;28;73276;-60
2023/12/12 09:41:22;;;;;;;;;2.00;1.00;;;;;14.77;77.83;99917.75;4954309;28;54014;-60
2023/12/12 09:43:48;;;;;;;;;2.25;2.00;;;;;14.79;77.69;99924.59;4944018;28;46045;-61
2023/12/12 09:46:15;;;;;;;;;2.50;2.50;;;;;14.84;77.27;99928.75;4939207;28;45461;-61
2023/12/12 09:48:42;;;;;;;;;3.50;1.25;;;;;14.87;77.19;99931.22;4939828;28;45434;-60
2023/12/12 09:51:07;;;;;;;;;2.00;2.00;;;;;14.86;76.89;99929.53;4943358;28;46301;-61
2023/12/12 09:53:35;;;;;;;;;4.00;2.25;;;;;14.85;77.03;99923.38;4942366;28;49628;-62
2023/12/12 09:56:05;;;;;;;;;6.00;3.75;;;;;14.85;77.03;99915.50;4942343;28;45430;-59
2023/12/12 09:58:31;;;;;;;;;50.25;34.75;;;;;14.87;77.21;99907.50;4935170;28;45572;-59
2023/12/12 10:01:00;;;;;;;;;26.00;21.00;;;;;14.88;77.60;99915.31;4939444;28;45450;-59
2023/12/12 10:03:26;;;;;;;;;21.25;12.25;;;;;14.87;78.26;99923.31;4951580;28;45973;-61
2023/12/12 10:05:53;;;;;;;;;10.25;7.50;;;;;14.87;79.96;99918.03;4940408;28;65512;-60
2023/12/12 10:08:19;;;;;;;;;11.25;4.25;;;;;14.85;79.08;99920.75;4943957;28;45893;-59
2023/12/12 10:10:44;;;;;;;;;5.00;4.00;;;;;14.87;78.55;99907.50;4942795;28;46146;-60
2023/12/12 10:13:09;;;;;;;;;3.50;3.00;;;;;14.86;78.55;99914.56;4943862;28;45438;-60
2023/12/12 10:15:34;;;;;;;;;4.75;3.00;;;;;14.87;78.14;99910.13;4942280;28;53766;-60
2023/12/12 10:18:00;;;;;;;;;4.75;3.00;;;;;14.84;78.40;99911.19;4940019;28;46179;-59
2023/12/12 10:20:27;;;;;;;;;5.50;2.50;;;;;14.86;78.19;99906.66;4958029;28;47154;-60
2023/12/12 10:23:03;;;;;;;;;3.00;2.75;;;;;14.86;77.98;99900.56;4947448;28;45486;-60
2023/12/12 10:25:29;;;;;;;;;3.50;2.00;;;;;14.87;77.75;99905.72;4943201;28;45437;-60
2023/12/12 10:27:56;;;;;;;;;2.00;2.00;;;;;14.89;77.69;99903.00;4944505;28;45717;-60
2023/12/12 10:30:22;;;;;;;;;4.00;1.75;;;;;14.90;77.33;99896.78;4943016;28;46428;-59
2023/12/12 10:32:51;;;;;;;;;2.00;2.00;;;;;14.92;77.37;99892.28;4942791;28;45468;-60
2023/12/12 10:35:21;;;;;;;;;2.75;2.00;;;;;14.95;76.67;99892.94;4941687;28;45425;-59
2023/12/12 10:37:47;;;;;;;;;2.75;2.75;;;;;14.97;76.37;99888.44;4938375;28;45493;-59
2023/12/12 10:40:17;;;;;;;;;3.25;1.50;;;;;14.98;75.94;99879.59;4939155;28;45863;-60
2023/12/12 10:42:43;;;;;;;;;4.00;2.00;;;;;15.00;75.73;99887.41;4925608;28;45288;-60
2023/12/12 10:45:12;;;;;;;;;2.50;1.00;;;;;15.04;75.62;99885.44;4933019;28;45296;-60
2023/12/12 10:47:45;;;;;;;;;0.75;0.75;;;;;15.03;75.17;99889.84;4939119;28;45443;-59
2023/12/12 10:50:13;;;;;;;;;0.75;0.75;;;;;15.04;74.97;99881.00;4943588;28;45515;-59
2023/12/12 10:52:39;;;;;;;;;1.00;1.00;;;;;15.04;74.46;99872.28;4948877;28;45717;-61
2023/12/12 10:55:06;;;;;;;;;2.25;2.00;;;;;15.08;74.68;99886.94;4940538;28;45497;-61
2023/12/12 10:57:32;;;;;;;;;3.50;1.25;;;;;15.07;74.33;99886.13;4940905;28;45633;-59
2023/12/12 10:59:58;;;;;;;;;6.75;2.00;;;;;15.08;74.46;99881.69;4939818;28;67232;-61
2023/12/12 11:02:23;;;;;;;;;1.00;1.00;;;;;15.08;74.64;99879.88;4932609;28;72053;-58
2023/12/12 11:04:49;;;;;;;;;2.00;2.00;;;;;15.11;74.33;99873.59;4945427;28;45463;-61
2023/12/12 11:07:15;;;;;;;;;2.00;1.00;;;;;15.12;74.33;99870.88;4946613;28;45372;-60
2023/12/12 11:09:41;;;;;;;;;2.00;1.50;;;;;15.12;74.20;99870.00;4946535;28;46264;-59
2023/12/12 11:12:07;;;;;;;;;30.25;26.75;;;;;15.10;73.91;99866.63;4941575;28;45993;-60
2023/12/12 11:14:33;;;;;;;;;4.00;2.75;;;;;15.15;73.74;99867.19;4947773;28;45598;-60